sensor_id;sensor_type;location;lat;lon;timestamp;P1;durP1;ratioP1;P2;durP2;ratioP2
10987;SDS011;5547;42.672;23.230;2024-01-16T00:02:28;15.60;;;11.50;;
10987;SDS011;5547;42.672;23.230;2024-01-16T00:05:28;17.30;;;12.47;;
10987;SDS011;5547;42.672;23.230;2024-01-16T00:08:28;17.15;;;11.55;;
10987;SDS011;5547;42.672;23.230;2024-01-16T00:11:29;17.80;;;11.60;;
10987;SDS011;5547;42.672;23.230;2024-01-16T00:14:29;16.20;;;11.43;;
10987;SDS011;5547;42.672;23.230;2024-01-16T00:17:29;17.27;;;11.50;;
10987;SDS011;5547;42.672;23.230;2024-01-16T00:20:29;16.13;;;10.40;;
10987;SDS011;5547;42.672;23.230;2024-01-16T00:23:30;15.43;;;11.50;;
10987;SDS011;5547;42.672;23.230;2024-01-16T00:26:32;15.53;;;11.20;;
10987;SDS011;5547;42.672;23.230;2024-01-16T00:29:32;14.77;;;10.53;;
10987;SDS011;5547;42.672;23.230;2024-01-16T00:32:33;15.33;;;10.07;;
10987;SDS011;5547;42.672;23.230;2024-01-16T00:35:33;14.40;;;10.07;;
10987;SDS011;5547;42.672;23.230;2024-01-16T00:38:33;13.47;;;9.37;;
10987;SDS011;5547;42.672;23.230;2024-01-16T00:41:34;14.85;;;10.13;;
10987;SDS011;5547;42.672;23.230;2024-01-16T00:44:34;15.87;;;10.80;;
10987;SDS011;5547;42.672;23.230;2024-01-16T00:47:35;17.80;;;11.67;;
10987;SDS011;5547;42.672;23.230;2024-01-16T00:50:35;20.77;;;13.97;;
10987;SDS011;5547;42.672;23.230;2024-01-16T00:53:39;15.47;;;10.40;;
10987;SDS011;5547;42.672;23.230;2024-01-16T00:56:41;13.98;;;9.27;;
10987;SDS011;5547;42.672;23.230;2024-01-16T00:59:41;14.63;;;9.48;;
10987;SDS011;5547;42.672;23.230;2024-01-16T01:02:41;13.73;;;8.93;;
10987;SDS011;5547;42.672;23.230;2024-01-16T01:05:43;11.95;;;8.15;;
10987;SDS011;5547;42.672;23.230;2024-01-16T01:08:43;10.50;;;7.40;;
10987;SDS011;5547;42.672;23.230;2024-01-16T01:11:43;11.50;;;8.07;;
10987;SDS011;5547;42.672;23.230;2024-01-16T01:14:44;12.83;;;8.83;;
10987;SDS011;5547;42.672;23.230;2024-01-16T01:17:44;12.50;;;8.40;;
10987;SDS011;5547;42.672;23.230;2024-01-16T01:20:44;12.20;;;8.33;;
10987;SDS011;5547;42.672;23.230;2024-01-16T01:23:44;12.67;;;9.07;;
10987;SDS011;5547;42.672;23.230;2024-01-16T01:26:45;11.80;;;7.90;;
10987;SDS011;5547;42.672;23.230;2024-01-16T01:29:45;13.17;;;8.50;;
10987;SDS011;5547;42.672;23.230;2024-01-16T01:32:46;10.70;;;7.70;;
10987;SDS011;5547;42.672;23.230;2024-01-16T01:35:46;8.07;;;4.77;;
10987;SDS011;5547;42.672;23.230;2024-01-16T01:38:46;4.20;;;2.60;;
10987;SDS011;5547;42.672;23.230;2024-01-16T01:41:46;2.83;;;2.17;;
10987;SDS011;5547;42.672;23.230;2024-01-16T01:44:47;3.37;;;2.10;;
10987;SDS011;5547;42.672;23.230;2024-01-16T01:47:47;2.30;;;1.67;;
10987;SDS011;5547;42.672;23.230;2024-01-16T01:50:48;3.03;;;1.80;;
10987;SDS011;5547;42.672;23.230;2024-01-16T01:53:49;2.88;;;2.03;;
10987;SDS011;5547;42.672;23.230;2024-01-16T01:56:50;3.13;;;1.80;;
10987;SDS011;5547;42.672;23.230;2024-01-16T01:59:51;2.42;;;1.60;;
10987;SDS011;5547;42.672;23.230;2024-01-16T02:02:51;2.70;;;1.80;;
10987;SDS011;5547;42.672;23.230;2024-01-16T02:05:51;3.00;;;1.80;;
10987;SDS011;5547;42.672;23.230;2024-01-16T02:08:52;2.15;;;1.83;;
10987;SDS011;5547;42.672;23.230;2024-01-16T02:11:53;3.57;;;1.80;;
10987;SDS011;5547;42.672;23.230;2024-01-16T02:14:53;2.50;;;1.67;;
10987;SDS011;5547;42.672;23.230;2024-01-16T02:17:53;3.42;;;1.88;;
10987;SDS011;5547;42.672;23.230;2024-01-16T02:20:53;4.40;;;2.73;;
10987;SDS011;5547;42.672;23.230;2024-01-16T02:23:56;2.25;;;1.80;;
10987;SDS011;5547;42.672;23.230;2024-01-16T02:26:56;2.60;;;1.70;;
10987;SDS011;5547;42.672;23.230;2024-01-16T02:29:57;2.05;;;1.50;;
10987;SDS011;5547;42.672;23.230;2024-01-16T02:32:57;2.73;;;1.80;;
10987;SDS011;5547;42.672;23.230;2024-01-16T02:35:57;2.27;;;1.60;;
10987;SDS011;5547;42.672;23.230;2024-01-16T02:38:58;2.20;;;1.70;;
10987;SDS011;5547;42.672;23.230;2024-01-16T02:41:58;2.80;;;1.70;;
10987;SDS011;5547;42.672;23.230;2024-01-16T02:44:58;2.33;;;1.57;;
10987;SDS011;5547;42.672;23.230;2024-01-16T02:47:58;1.80;;;1.60;;
10987;SDS011;5547;42.672;23.230;2024-01-16T02:50:59;2.95;;;1.88;;
10987;SDS011;5547;42.672;23.230;2024-01-16T02:53:59;2.70;;;2.00;;
10987;SDS011;5547;42.672;23.230;2024-01-16T02:56:59;5.37;;;3.73;;
10987;SDS011;5547;42.672;23.230;2024-01-16T03:00:00;5.87;;;4.17;;
10987;SDS011;5547;42.672;23.230;2024-01-16T03:03:00;7.40;;;5.33;;
10987;SDS011;5547;42.672;23.230;2024-01-16T03:06:00;9.53;;;6.77;;
10987;SDS011;5547;42.672;23.230;2024-01-16T03:09:00;8.18;;;6.53;;
10987;SDS011;5547;42.672;23.230;2024-01-16T03:12:01;6.13;;;4.20;;
10987;SDS011;5547;42.672;23.230;2024-01-16T03:15:01;5.17;;;4.27;;
10987;SDS011;5547;42.672;23.230;2024-01-16T03:18:02;5.90;;;4.50;;
10987;SDS011;5547;42.672;23.230;2024-01-16T03:21:02;5.73;;;4.83;;
10987;SDS011;5547;42.672;23.230;2024-01-16T03:24:03;5.33;;;4.83;;
10987;SDS011;5547;42.672;23.230;2024-01-16T03:27:04;7.00;;;5.22;;
10987;SDS011;5547;42.672;23.230;2024-01-16T03:30:05;6.90;;;5.80;;
10987;SDS011;5547;42.672;23.230;2024-01-16T03:33:06;6.88;;;5.88;;
10987;SDS011;5547;42.672;23.230;2024-01-16T03:36:06;6.87;;;6.20;;
10987;SDS011;5547;42.672;23.230;2024-01-16T03:39:06;7.17;;;6.40;;
10987;SDS011;5547;42.672;23.230;2024-01-16T03:42:08;6.63;;;5.80;;
10987;SDS011;5547;42.672;23.230;2024-01-16T03:45:09;7.00;;;5.73;;
10987;SDS011;5547;42.672;23.230;2024-01-16T03:48:09;6.47;;;5.28;;
10987;SDS011;5547;42.672;23.230;2024-01-16T03:51:09;5.47;;;4.97;;
10987;SDS011;5547;42.672;23.230;2024-01-16T03:54:10;5.87;;;5.23;;
10987;SDS011;5547;42.672;23.230;2024-01-16T03:57:10;5.37;;;4.77;;
10987;SDS011;5547;42.672;23.230;2024-01-16T04:00:13;6.17;;;5.20;;
10987;SDS011;5547;42.672;23.230;2024-01-16T04:03:14;5.53;;;4.70;;
10987;SDS011;5547;42.672;23.230;2024-01-16T04:06:17;5.63;;;4.65;;
10987;SDS011;5547;42.672;23.230;2024-01-16T04:09:17;4.50;;;4.07;;
10987;SDS011;5547;42.672;23.230;2024-01-16T04:12:18;4.67;;;4.17;;
10987;SDS011;5547;42.672;23.230;2024-01-16T04:15:18;4.60;;;3.87;;
10987;SDS011;5547;42.672;23.230;2024-01-16T04:18:18;4.10;;;3.70;;
10987;SDS011;5547;42.672;23.230;2024-01-16T04:21:18;4.70;;;4.30;;
10987;SDS011;5547;42.672;23.230;2024-01-16T04:24:19;4.27;;;3.87;;
10987;SDS011;5547;42.672;23.230;2024-01-16T04:27:19;4.03;;;3.63;;
10987;SDS011;5547;42.672;23.230;2024-01-16T04:30:20;4.57;;;3.85;;
10987;SDS011;5547;42.672;23.230;2024-01-16T04:33:20;4.53;;;4.13;;
10987;SDS011;5547;42.672;23.230;2024-01-16T04:36:20;4.70;;;4.20;;
10987;SDS011;5547;42.672;23.230;2024-01-16T04:39:21;4.30;;;3.90;;
10987;SDS011;5547;42.672;23.230;2024-01-16T04:42:22;5.20;;;3.95;;
10987;SDS011;5547;42.672;23.230;2024-01-16T04:45:23;4.73;;;3.53;;
10987;SDS011;5547;42.672;23.230;2024-01-16T04:48:23;3.63;;;3.33;;
10987;SDS011;5547;42.672;23.230;2024-01-16T04:51:23;3.60;;;3.30;;
10987;SDS011;5547;42.672;23.230;2024-01-16T04:54:23;3.40;;;3.03;;
10987;SDS011;5547;42.672;23.230;2024-01-16T04:57:24;3.22;;;2.75;;
10987;SDS011;5547;42.672;23.230;2024-01-16T05:00:24;3.80;;;3.50;;
10987;SDS011;5547;42.672;23.230;2024-01-16T05:03:24;2.57;;;2.37;;
10987;SDS011;5547;42.672;23.230;2024-01-16T05:06:24;2.83;;;2.63;;
10987;SDS011;5547;42.672;23.230;2024-01-16T05:09:25;3.10;;;2.80;;
10987;SDS011;5547;42.672;23.230;2024-01-16T05:12:25;3.90;;;3.07;;
10987;SDS011;5547;42.672;23.230;2024-01-16T05:15:25;2.83;;;2.53;;
10987;SDS011;5547;42.672;23.230;2024-01-16T05:18:26;2.63;;;2.40;;
10987;SDS011;5547;42.672;23.230;2024-01-16T05:21:26;3.07;;;2.43;;
10987;SDS011;5547;42.672;23.230;2024-01-16T05:24:26;2.40;;;2.13;;
10987;SDS011;5547;42.672;23.230;2024-01-16T05:27:27;1.80;;;1.70;;
10987;SDS011;5547;42.672;23.230;2024-01-16T05:30:27;2.07;;;1.87;;
10987;SDS011;5547;42.672;23.230;2024-01-16T05:33:27;2.20;;;1.60;;
10987;SDS011;5547;42.672;23.230;2024-01-16T05:36:27;1.67;;;1.50;;
10987;SDS011;5547;42.672;23.230;2024-01-16T05:39:28;1.70;;;1.50;;
10987;SDS011;5547;42.672;23.230;2024-01-16T05:42:28;2.20;;;1.90;;
10987;SDS011;5547;42.672;23.230;2024-01-16T05:45:28;1.88;;;1.50;;
10987;SDS011;5547;42.672;23.230;2024-01-16T05:48:29;1.60;;;1.50;;
10987;SDS011;5547;42.672;23.230;2024-01-16T05:51:29;2.27;;;2.07;;
10987;SDS011;5547;42.672;23.230;2024-01-16T05:54:29;1.97;;;1.77;;
10987;SDS011;5547;42.672;23.230;2024-01-16T05:57:29;2.33;;;2.13;;
10987;SDS011;5547;42.672;23.230;2024-01-16T06:00:33;2.17;;;1.77;;
10987;SDS011;5547;42.672;23.230;2024-01-16T06:03:34;2.05;;;1.80;;
10987;SDS011;5547;42.672;23.230;2024-01-16T06:06:34;2.07;;;1.87;;
10987;SDS011;5547;42.672;23.230;2024-01-16T06:09:38;2.40;;;2.20;;
10987;SDS011;5547;42.672;23.230;2024-01-16T06:12:39;2.17;;;1.65;;
10987;SDS011;5547;42.672;23.230;2024-01-16T06:15:40;3.97;;;3.20;;
10987;SDS011;5547;42.672;23.230;2024-01-16T06:18:40;2.50;;;2.30;;
10987;SDS011;5547;42.672;23.230;2024-01-16T06:21:40;2.73;;;2.40;;
10987;SDS011;5547;42.672;23.230;2024-01-16T06:24:41;2.50;;;2.00;;
10987;SDS011;5547;42.672;23.230;2024-01-16T06:27:41;2.40;;;2.17;;
10987;SDS011;5547;42.672;23.230;2024-01-16T06:30:41;2.30;;;1.97;;
10987;SDS011;5547;42.672;23.230;2024-01-16T06:33:41;2.30;;;2.07;;
10987;SDS011;5547;42.672;23.230;2024-01-16T06:36:42;2.90;;;2.60;;
10987;SDS011;5547;42.672;23.230;2024-01-16T06:39:42;2.03;;;1.55;;
10987;SDS011;5547;42.672;23.230;2024-01-16T06:42:43;2.07;;;1.70;;
10987;SDS011;5547;42.672;23.230;2024-01-16T06:45:43;2.20;;;1.80;;
10987;SDS011;5547;42.672;23.230;2024-01-16T06:48:45;1.80;;;1.52;;
10987;SDS011;5547;42.672;23.230;2024-01-16T06:51:45;1.33;;;1.20;;
10987;SDS011;5547;42.672;23.230;2024-01-16T06:54:47;1.52;;;1.20;;
10987;SDS011;5547;42.672;23.230;2024-01-16T06:57:48;1.80;;;1.30;;
10987;SDS011;5547;42.672;23.230;2024-01-16T07:00:51;1.45;;;1.30;;
10987;SDS011;5547;42.672;23.230;2024-01-16T07:03:52;1.45;;;1.25;;
10987;SDS011;5547;42.672;23.230;2024-01-16T07:06:52;1.60;;;1.50;;
10987;SDS011;5547;42.672;23.230;2024-01-16T07:09:53;1.33;;;1.23;;
10987;SDS011;5547;42.672;23.230;2024-01-16T07:12:53;2.30;;;1.50;;
10987;SDS011;5547;42.672;23.230;2024-01-16T07:15:53;2.00;;;1.30;;
10987;SDS011;5547;42.672;23.230;2024-01-16T07:18:53;1.87;;;1.67;;
10987;SDS011;5547;42.672;23.230;2024-01-16T07:21:55;1.53;;;1.20;;
10987;SDS011;5547;42.672;23.230;2024-01-16T07:24:55;1.93;;;1.37;;
10987;SDS011;5547;42.672;23.230;2024-01-16T07:27:56;1.40;;;1.17;;
10987;SDS011;5547;42.672;23.230;2024-01-16T07:30:56;1.60;;;1.50;;
10987;SDS011;5547;42.672;23.230;2024-01-16T07:33:56;1.30;;;1.03;;
10987;SDS011;5547;42.672;23.230;2024-01-16T07:36:56;1.80;;;1.17;;
10987;SDS011;5547;42.672;23.230;2024-01-16T07:39:57;1.40;;;1.17;;
10987;SDS011;5547;42.672;23.230;2024-01-16T07:42:57;1.30;;;1.20;;
10987;SDS011;5547;42.672;23.230;2024-01-16T07:45:57;1.70;;;1.27;;
10987;SDS011;5547;42.672;23.230;2024-01-16T07:48:58;1.93;;;1.80;;
10987;SDS011;5547;42.672;23.230;2024-01-16T07:51:58;1.50;;;1.40;;
10987;SDS011;5547;42.672;23.230;2024-01-16T07:54:58;1.50;;;1.40;;
10987;SDS011;5547;42.672;23.230;2024-01-16T07:57:59;1.60;;;1.30;;
10987;SDS011;5547;42.672;23.230;2024-01-16T08:00:59;1.33;;;1.23;;
10987;SDS011;5547;42.672;23.230;2024-01-16T08:03:59;1.43;;;1.33;;
10987;SDS011;5547;42.672;23.230;2024-01-16T08:07:00;1.15;;;1.05;;
10987;SDS011;5547;42.672;23.230;2024-01-16T08:10:00;1.77;;;1.53;;
10987;SDS011;5547;42.672;23.230;2024-01-16T08:13:01;2.40;;;1.60;;
10987;SDS011;5547;42.672;23.230;2024-01-16T08:16:01;3.10;;;2.30;;
10987;SDS011;5547;42.672;23.230;2024-01-16T08:19:01;2.70;;;2.50;;
10987;SDS011;5547;42.672;23.230;2024-01-16T08:22:03;2.80;;;2.27;;
10987;SDS011;5547;42.672;23.230;2024-01-16T08:25:04;2.03;;;1.70;;
10987;SDS011;5547;42.672;23.230;2024-01-16T08:28:05;1.58;;;1.02;;
10987;SDS011;5547;42.672;23.230;2024-01-16T08:31:05;2.20;;;1.70;;
10987;SDS011;5547;42.672;23.230;2024-01-16T08:34:05;2.10;;;1.90;;
10987;SDS011;5547;42.672;23.230;2024-01-16T08:37:05;2.10;;;1.77;;
10987;SDS011;5547;42.672;23.230;2024-01-16T08:40:06;2.20;;;1.60;;
10987;SDS011;5547;42.672;23.230;2024-01-16T08:43:06;1.50;;;1.40;;
10987;SDS011;5547;42.672;23.230;2024-01-16T08:46:07;1.40;;;1.30;;
10987;SDS011;5547;42.672;23.230;2024-01-16T08:49:07;2.07;;;1.60;;
10987;SDS011;5547;42.672;23.230;2024-01-16T08:52:09;1.90;;;1.70;;
10987;SDS011;5547;42.672;23.230;2024-01-16T08:55:10;1.70;;;1.58;;
10987;SDS011;5547;42.672;23.230;2024-01-16T08:58:10;2.53;;;2.10;;
10987;SDS011;5547;42.672;23.230;2024-01-16T09:01:10;1.53;;;1.33;;
10987;SDS011;5547;42.672;23.230;2024-01-16T09:04:11;1.80;;;1.50;;
10987;SDS011;5547;42.672;23.230;2024-01-16T09:07:11;1.73;;;1.33;;
10987;SDS011;5547;42.672;23.230;2024-01-16T09:10:15;2.80;;;2.00;;
10987;SDS011;5547;42.672;23.230;2024-01-16T09:13:15;1.90;;;1.50;;
10987;SDS011;5547;42.672;23.230;2024-01-16T09:16:16;2.80;;;1.73;;
10987;SDS011;5547;42.672;23.230;2024-01-16T09:19:16;1.63;;;1.50;;
10987;SDS011;5547;42.672;23.230;2024-01-16T09:22:16;2.43;;;1.67;;
10987;SDS011;5547;42.672;23.230;2024-01-16T09:25:17;2.77;;;2.40;;
10987;SDS011;5547;42.672;23.230;2024-01-16T09:28:17;3.17;;;2.60;;
10987;SDS011;5547;42.672;23.230;2024-01-16T09:31:18;3.70;;;2.65;;
10987;SDS011;5547;42.672;23.230;2024-01-16T09:34:18;1.80;;;1.70;;
10987;SDS011;5547;42.672;23.230;2024-01-16T09:37:19;1.80;;;1.50;;
10987;SDS011;5547;42.672;23.230;2024-01-16T09:40:19;1.80;;;1.57;;
10987;SDS011;5547;42.672;23.230;2024-01-16T09:43:20;1.77;;;1.20;;
10987;SDS011;5547;42.672;23.230;2024-01-16T09:46:22;1.88;;;1.67;;
10987;SDS011;5547;42.672;23.230;2024-01-16T09:49:22;1.50;;;1.20;;
10987;SDS011;5547;42.672;23.230;2024-01-16T09:52:23;1.53;;;1.20;;
10987;SDS011;5547;42.672;23.230;2024-01-16T09:55:24;2.00;;;1.40;;
10987;SDS011;5547;42.672;23.230;2024-01-16T09:58:24;1.73;;;1.40;;
10987;SDS011;5547;42.672;23.230;2024-01-16T10:01:26;1.60;;;1.43;;
10987;SDS011;5547;42.672;23.230;2024-01-16T10:04:27;1.35;;;1.20;;
10987;SDS011;5547;42.672;23.230;2024-01-16T10:07:28;2.13;;;1.67;;
10987;SDS011;5547;42.672;23.230;2024-01-16T10:10:30;2.03;;;1.42;;
10987;SDS011;5547;42.672;23.230;2024-01-16T10:13:30;1.50;;;1.33;;
10987;SDS011;5547;42.672;23.230;2024-01-16T10:20:14;1.92;;;1.50;;
10987;SDS011;5547;42.672;23.230;2024-01-16T10:23:22;1.77;;;1.40;;
10987;SDS011;5547;42.672;23.230;2024-01-16T10:26:22;1.35;;;1.25;;
10987;SDS011;5547;42.672;23.230;2024-01-16T10:29:22;1.30;;;1.20;;
10987;SDS011;5547;42.672;23.230;2024-01-16T10:32:29;1.50;;;1.40;;
10987;SDS011;5547;42.672;23.230;2024-01-16T10:35:30;1.20;;;1.02;;
10987;SDS011;5547;42.672;23.230;2024-01-16T10:38:33;1.67;;;1.57;;
10987;SDS011;5547;42.672;23.230;2024-01-16T10:41:34;1.40;;;1.20;;
10987;SDS011;5547;42.672;23.230;2024-01-16T10:44:34;1.43;;;1.00;;
10987;SDS011;5547;42.672;23.230;2024-01-16T10:47:34;1.63;;;1.30;;
10987;SDS011;5547;42.672;23.230;2024-01-16T10:50:37;2.28;;;1.40;;
10987;SDS011;5547;42.672;23.230;2024-01-16T10:53:39;1.20;;;0.88;;
10987;SDS011;5547;42.672;23.230;2024-01-16T10:56:45;2.10;;;1.15;;
10987;SDS011;5547;42.672;23.230;2024-01-16T10:59:50;2.05;;;1.35;;
10987;SDS011;5547;42.672;23.230;2024-01-16T11:03:08;1.00;;;0.75;;
10987;SDS011;5547;42.672;23.230;2024-01-16T11:06:11;1.70;;;1.25;;
10987;SDS011;5547;42.672;23.230;2024-01-16T11:09:12;1.77;;;1.23;;
10987;SDS011;5547;42.672;23.230;2024-01-16T11:12:15;1.50;;;0.90;;
10987;SDS011;5547;42.672;23.230;2024-01-16T11:15:17;2.50;;;1.23;;
10987;SDS011;5547;42.672;23.230;2024-01-16T11:18:17;2.10;;;1.30;;
10987;SDS011;5547;42.672;23.230;2024-01-16T11:21:19;1.90;;;1.42;;
10987;SDS011;5547;42.672;23.230;2024-01-16T11:24:19;2.40;;;1.67;;
10987;SDS011;5547;42.672;23.230;2024-01-16T11:27:22;3.50;;;1.90;;
10987;SDS011;5547;42.672;23.230;2024-01-16T11:30:32;9.03;;;4.67;;
10987;SDS011;5547;42.672;23.230;2024-01-16T11:39:45;3.40;;;2.60;;
10987;SDS011;5547;42.672;23.230;2024-01-16T11:42:45;2.27;;;1.90;;
10987;SDS011;5547;42.672;23.230;2024-01-16T11:45:49;3.13;;;2.40;;
10987;SDS011;5547;42.672;23.230;2024-01-16T11:49:01;2.20;;;1.83;;
10987;SDS011;5547;42.672;23.230;2024-01-16T11:52:02;1.95;;;1.73;;
10987;SDS011;5547;42.672;23.230;2024-01-16T11:55:18;2.30;;;1.77;;
10987;SDS011;5547;42.672;23.230;2024-01-16T12:01:27;3.10;;;2.00;;
10987;SDS011;5547;42.672;23.230;2024-01-16T12:04:27;2.55;;;2.15;;
10987;SDS011;5547;42.672;23.230;2024-01-16T12:07:28;2.90;;;2.07;;
10987;SDS011;5547;42.672;23.230;2024-01-16T12:10:28;2.83;;;2.20;;
10987;SDS011;5547;42.672;23.230;2024-01-16T12:13:28;2.17;;;1.63;;
10987;SDS011;5547;42.672;23.230;2024-01-16T12:16:28;2.87;;;1.73;;
10987;SDS011;5547;42.672;23.230;2024-01-16T12:19:29;2.13;;;1.70;;
10987;SDS011;5547;42.672;23.230;2024-01-16T12:22:29;2.50;;;2.30;;
10987;SDS011;5547;42.672;23.230;2024-01-16T12:25:31;2.72;;;1.90;;
10987;SDS011;5547;42.672;23.230;2024-01-16T12:28:31;3.45;;;2.20;;
10987;SDS011;5547;42.672;23.230;2024-01-16T12:31:32;2.77;;;2.00;;
10987;SDS011;5547;42.672;23.230;2024-01-16T12:34:32;2.90;;;2.23;;
10987;SDS011;5547;42.672;23.230;2024-01-16T12:37:32;4.03;;;2.27;;
10987;SDS011;5547;42.672;23.230;2024-01-16T12:40:33;2.87;;;2.27;;
10987;SDS011;5547;42.672;23.230;2024-01-16T12:43:33;3.20;;;2.50;;
10987;SDS011;5547;42.672;23.230;2024-01-16T12:46:34;3.57;;;2.30;;
10987;SDS011;5547;42.672;23.230;2024-01-16T12:49:40;2.30;;;1.90;;
10987;SDS011;5547;42.672;23.230;2024-01-16T12:52:42;2.50;;;1.80;;
10987;SDS011;5547;42.672;23.230;2024-01-16T12:55:43;2.50;;;2.17;;
10987;SDS011;5547;42.672;23.230;2024-01-16T12:58:43;2.63;;;2.10;;
10987;SDS011;5547;42.672;23.230;2024-01-16T13:01:44;4.07;;;2.60;;
10987;SDS011;5547;42.672;23.230;2024-01-16T13:04:46;3.05;;;2.70;;
10987;SDS011;5547;42.672;23.230;2024-01-16T13:07:46;4.00;;;2.83;;
10987;SDS011;5547;42.672;23.230;2024-01-16T13:11:05;3.65;;;2.38;;
10987;SDS011;5547;42.672;23.230;2024-01-16T13:14:06;3.65;;;2.78;;
10987;SDS011;5547;42.672;23.230;2024-01-16T13:17:06;3.27;;;2.77;;
10987;SDS011;5547;42.672;23.230;2024-01-16T13:20:08;2.80;;;2.10;;
10987;SDS011;5547;42.672;23.230;2024-01-16T13:23:11;2.83;;;2.27;;
10987;SDS011;5547;42.672;23.230;2024-01-16T13:26:13;2.65;;;2.10;;
10987;SDS011;5547;42.672;23.230;2024-01-16T13:29:14;3.00;;;2.20;;
10987;SDS011;5547;42.672;23.230;2024-01-16T13:32:15;3.15;;;2.08;;
10987;SDS011;5547;42.672;23.230;2024-01-16T13:35:15;3.90;;;2.50;;
10987;SDS011;5547;42.672;23.230;2024-01-16T13:38:16;2.93;;;1.90;;
10987;SDS011;5547;42.672;23.230;2024-01-16T13:41:16;2.50;;;2.10;;
10987;SDS011;5547;42.672;23.230;2024-01-16T13:44:16;2.90;;;2.47;;
10987;SDS011;5547;42.672;23.230;2024-01-16T13:47:17;2.50;;;2.27;;
10987;SDS011;5547;42.672;23.230;2024-01-16T13:50:18;2.90;;;1.95;;
10987;SDS011;5547;42.672;23.230;2024-01-16T13:53:19;2.77;;;1.63;;
10987;SDS011;5547;42.672;23.230;2024-01-16T13:56:19;2.60;;;2.00;;
10987;SDS011;5547;42.672;23.230;2024-01-16T13:59:19;2.67;;;1.97;;
10987;SDS011;5547;42.672;23.230;2024-01-16T14:02:19;2.63;;;1.80;;
10987;SDS011;5547;42.672;23.230;2024-01-16T14:05:20;3.13;;;2.33;;
10987;SDS011;5547;42.672;23.230;2024-01-16T14:08:20;3.37;;;2.53;;
10987;SDS011;5547;42.672;23.230;2024-01-16T14:11:21;3.43;;;2.70;;
10987;SDS011;5547;42.672;23.230;2024-01-16T14:14:21;3.47;;;3.17;;
10987;SDS011;5547;42.672;23.230;2024-01-16T14:17:21;4.87;;;2.77;;
10987;SDS011;5547;42.672;23.230;2024-01-16T14:20:23;4.03;;;2.87;;
10987;SDS011;5547;42.672;23.230;2024-01-16T14:23:24;4.07;;;2.95;;
10987;SDS011;5547;42.672;23.230;2024-01-16T14:26:24;4.87;;;3.33;;
10987;SDS011;5547;42.672;23.230;2024-01-16T14:29:24;5.33;;;3.37;;
10987;SDS011;5547;42.672;23.230;2024-01-16T14:32:25;5.13;;;3.40;;
10987;SDS011;5547;42.672;23.230;2024-01-16T14:35:25;3.70;;;3.10;;
10987;SDS011;5547;42.672;23.230;2024-01-16T14:38:26;3.73;;;3.43;;
10987;SDS011;5547;42.672;23.230;2024-01-16T14:41:26;5.35;;;4.30;;
10987;SDS011;5547;42.672;23.230;2024-01-16T14:44:26;7.67;;;5.73;;
10987;SDS011;5547;42.672;23.230;2024-01-16T14:47:27;4.17;;;3.30;;
10987;SDS011;5547;42.672;23.230;2024-01-16T14:50:27;4.87;;;3.53;;
10987;SDS011;5547;42.672;23.230;2024-01-16T14:53:28;4.82;;;4.00;;
10987;SDS011;5547;42.672;23.230;2024-01-16T14:56:28;4.67;;;4.10;;
10987;SDS011;5547;42.672;23.230;2024-01-16T14:59:30;4.03;;;3.40;;
10987;SDS011;5547;42.672;23.230;2024-01-16T15:02:30;3.83;;;3.43;;
10987;SDS011;5547;42.672;23.230;2024-01-16T15:05:30;4.30;;;3.20;;
10987;SDS011;5547;42.672;23.230;2024-01-16T15:08:31;3.60;;;2.73;;
10987;SDS011;5547;42.672;23.230;2024-01-16T15:11:32;4.63;;;4.13;;
10987;SDS011;5547;42.672;23.230;2024-01-16T15:14:33;5.53;;;4.07;;
10987;SDS011;5547;42.672;23.230;2024-01-16T15:17:34;5.50;;;4.38;;
10987;SDS011;5547;42.672;23.230;2024-01-16T15:20:34;6.37;;;4.20;;
10987;SDS011;5547;42.672;23.230;2024-01-16T15:23:34;5.30;;;4.30;;
10987;SDS011;5547;42.672;23.230;2024-01-16T15:26:34;6.00;;;4.23;;
10987;SDS011;5547;42.672;23.230;2024-01-16T15:29:36;5.60;;;3.90;;
10987;SDS011;5547;42.672;23.230;2024-01-16T15:32:36;6.07;;;3.90;;
10987;SDS011;5547;42.672;23.230;2024-01-16T15:35:37;5.07;;;3.77;;
10987;SDS011;5547;42.672;23.230;2024-01-16T15:38:37;4.33;;;3.93;;
10987;SDS011;5547;42.672;23.230;2024-01-16T15:41:37;5.30;;;4.10;;
10987;SDS011;5547;42.672;23.230;2024-01-16T15:44:37;5.40;;;3.50;;
10987;SDS011;5547;42.672;23.230;2024-01-16T15:47:38;5.10;;;3.93;;
10987;SDS011;5547;42.672;23.230;2024-01-16T15:50:38;5.90;;;4.73;;
10987;SDS011;5547;42.672;23.230;2024-01-16T15:53:39;5.35;;;4.07;;
10987;SDS011;5547;42.672;23.230;2024-01-16T15:56:39;5.53;;;4.73;;
10987;SDS011;5547;42.672;23.230;2024-01-16T15:59:39;8.00;;;6.00;;
10987;SDS011;5547;42.672;23.230;2024-01-16T16:02:39;8.33;;;6.83;;
10987;SDS011;5547;42.672;23.230;2024-01-16T16:05:40;9.07;;;6.87;;
10987;SDS011;5547;42.672;23.230;2024-01-16T16:08:40;7.37;;;5.90;;
10987;SDS011;5547;42.672;23.230;2024-01-16T16:11:41;6.18;;;5.10;;
10987;SDS011;5547;42.672;23.230;2024-01-16T16:14:41;7.65;;;5.82;;
10987;SDS011;5547;42.672;23.230;2024-01-16T16:17:42;8.10;;;5.77;;
10987;SDS011;5547;42.672;23.230;2024-01-16T16:20:42;7.80;;;5.60;;
10987;SDS011;5547;42.672;23.230;2024-01-16T16:23:42;7.20;;;4.83;;
10987;SDS011;5547;42.672;23.230;2024-01-16T16:26:44;6.75;;;5.75;;
10987;SDS011;5547;42.672;23.230;2024-01-16T16:29:44;7.63;;;6.03;;
10987;SDS011;5547;42.672;23.230;2024-01-16T16:32:44;7.87;;;6.00;;
10987;SDS011;5547;42.672;23.230;2024-01-16T16:35:45;8.10;;;5.57;;
10987;SDS011;5547;42.672;23.230;2024-01-16T16:38:45;8.43;;;6.07;;
10987;SDS011;5547;42.672;23.230;2024-01-16T16:41:45;9.10;;;6.67;;
10987;SDS011;5547;42.672;23.230;2024-01-16T16:44:46;8.20;;;6.18;;
10987;SDS011;5547;42.672;23.230;2024-01-16T16:47:46;9.17;;;6.70;;
10987;SDS011;5547;42.672;23.230;2024-01-16T16:50:47;7.93;;;5.63;;
10987;SDS011;5547;42.672;23.230;2024-01-16T16:53:47;8.53;;;5.97;;
10987;SDS011;5547;42.672;23.230;2024-01-16T16:56:47;10.38;;;7.00;;
10987;SDS011;5547;42.672;23.230;2024-01-16T16:59:48;7.30;;;6.00;;
10987;SDS011;5547;42.672;23.230;2024-01-16T17:02:48;19.37;;;5.63;;
10987;SDS011;5547;42.672;23.230;2024-01-16T17:05:50;6.88;;;5.03;;
10987;SDS011;5547;42.672;23.230;2024-01-16T17:08:51;10.52;;;4.70;;
10987;SDS011;5547;42.672;23.230;2024-01-16T17:11:51;7.17;;;5.70;;
10987;SDS011;5547;42.672;23.230;2024-01-16T17:14:51;17.80;;;9.37;;
10987;SDS011;5547;42.672;23.230;2024-01-16T17:17:54;32.75;;;17.20;;
10987;SDS011;5547;42.672;23.230;2024-01-16T17:20:54;15.25;;;10.60;;
10987;SDS011;5547;42.672;23.230;2024-01-16T17:23:54;9.20;;;6.57;;
10987;SDS011;5547;42.672;23.230;2024-01-16T17:26:54;6.93;;;6.20;;
10987;SDS011;5547;42.672;23.230;2024-01-16T17:29:55;19.33;;;12.73;;
10987;SDS011;5547;42.672;23.230;2024-01-16T17:32:55;13.13;;;10.43;;
10987;SDS011;5547;42.672;23.230;2024-01-16T17:35:55;11.52;;;9.45;;
10987;SDS011;5547;42.672;23.230;2024-01-16T17:39:06;11.35;;;8.45;;
10987;SDS011;5547;42.672;23.230;2024-01-16T17:42:09;22.92;;;14.55;;
10987;SDS011;5547;42.672;23.230;2024-01-16T17:45:09;20.90;;;12.50;;
10987;SDS011;5547;42.672;23.230;2024-01-16T17:48:11;20.33;;;11.88;;
10987;SDS011;5547;42.672;23.230;2024-01-16T17:51:12;36.25;;;18.33;;
10987;SDS011;5547;42.672;23.230;2024-01-16T17:54:12;88.27;;;45.67;;
10987;SDS011;5547;42.672;23.230;2024-01-16T17:57:13;220.15;;;96.93;;
10987;SDS011;5547;42.672;23.230;2024-01-16T18:00:13;72.40;;;33.60;;
10987;SDS011;5547;42.672;23.230;2024-01-16T18:03:13;39.10;;;19.13;;
10987;SDS011;5547;42.672;23.230;2024-01-16T18:06:14;42.73;;;23.23;;
10987;SDS011;5547;42.672;23.230;2024-01-16T18:09:16;56.38;;;29.50;;
10987;SDS011;5547;42.672;23.230;2024-01-16T18:12:16;31.77;;;17.90;;
10987;SDS011;5547;42.672;23.230;2024-01-16T18:15:16;23.03;;;13.40;;
10987;SDS011;5547;42.672;23.230;2024-01-16T18:18:17;15.88;;;11.55;;
10987;SDS011;5547;42.672;23.230;2024-01-16T18:21:20;13.32;;;9.32;;